Time;durP1;ratioP1;P1;durP2;ratioP2;P2;SDS_P1;SDS_P2;PMS_P1;PMS_P2;Temp;Humidity;BMP_temperature;BMP_pressure;BME280_temperature;BME280_humidity;BME280_pressure;Samples;Min_cycle;Max_cycle;Signal;HPM_P1;HPM_P2
2023/11/20 00:00:15;;;;;;;0.80;0.80;;;;;;;6.08;89.47;98392.69;4996194;28;20038;-78
2023/11/20 00:02:42;;;;;;;0.70;0.70;;;;;;;5.82;89.67;98388.94;4996049;28;20551;-77
2023/11/20 00:05:08;;;;;;;;;;;;;;;5.69;89.72;98405.13;5001709;28;20049;-77
2023/11/20 00:07:33;;;;;;;0.80;0.80;;;;;;;5.50;90.28;98397.25;4998443;28;19917;-77
2023/11/20 00:09:59;;;;;;;0.70;0.70;;;;;;;5.28;90.48;98398.97;4995959;28;20033;-77
2023/11/20 00:12:24;;;;;;;0.70;0.70;;;;;;;5.26;91.19;98397.97;4994219;28;20383;-77
2023/11/20 00:14:49;;;;;;;0.80;0.80;;;;;;;4.94;91.21;98393.91;4995994;28;20041;-77
2023/11/20 00:17:15;;;;;;;0.80;0.80;;;;;;;4.69;91.74;98398.88;4997762;28;20026;-77
2023/11/20 00:19:41;;;;;;;0.70;0.70;;;;;;;4.54;92.12;98399.97;4996008;28;20080;-77
2023/11/20 00:22:07;;;;;;;0.80;0.80;;;;;;;4.53;92.66;98398.16;4995906;28;20030;-77
2023/11/20 00:24:32;;;;;;;0.80;0.80;;;;;;;4.26;92.70;98399.47;4997604;28;20038;-77
2023/11/20 00:26:57;;;;;;;0.80;0.80;;;;;;;4.25;93.25;98395.94;4996609;28;20045;-77
2023/11/20 00:29:23;;;;;;;0.80;0.80;;;;;;;4.36;93.31;98393.84;4995739;28;20034;-76
2023/11/20 00:31:48;;;;;;;0.70;0.70;;;;;;;4.41;93.68;98391.38;5008973;28;20179;-76
2023/11/20 00:34:14;;;;;;;0.80;0.80;;;;;;;4.09;93.41;98394.28;4996639;28;20041;-76
2023/11/20 00:36:40;;;;;;;0.80;0.80;;;;;;;4.24;93.83;98393.22;4997569;28;20561;-77
2023/11/20 00:39:05;;;;;;;0.80;0.80;;;;;;;4.15;94.08;98396.31;4997478;28;20128;-76
2023/11/20 00:41:35;;;;;;;0.80;0.80;;;;;;;4.09;94.19;98390.75;4992160;28;20025;-78
2023/11/20 00:44:00;;;;;;;0.90;0.90;;;;;;;4.02;94.50;98407.09;4994648;28;20556;-77
2023/11/20 00:46:26;;;;;;;0.82;0.82;;;;;;;3.94;94.60;98400.56;4996065;28;20042;-77
2023/11/20 00:48:51;;;;;;;0.80;0.80;;;;;;;3.78;94.51;98399.78;4993709;28;20030;-76
2023/11/20 00:51:16;;;;;;;0.80;0.80;;;;;;;3.81;94.78;98399.94;4999595;28;20096;-76
2023/11/20 00:53:42;;;;;;;0.80;0.80;;;;;;;3.89;94.75;98404.72;4996965;28;20038;-76
2023/11/20 00:56:08;;;;;;;0.80;0.80;;;;;;;3.97;95.23;98400.69;5000762;28;20034;-77
2023/11/20 00:58:34;;;;;;;0.82;0.82;;;;;;;3.71;94.99;98400.31;4997212;28;20084;-77
2023/11/20 01:01:01;;;;;;;0.90;0.90;;;;;;;3.66;94.72;98391.25;4994373;28;20030;-76
2023/11/20 01:03:27;;;;;;;0.90;0.90;;;;;;;3.57;95.33;98398.69;5010262;28;20295;-77
2023/11/20 01:05:53;;;;;;;0.90;0.90;;;;;;;3.58;95.35;98392.59;4995479;28;20766;-77
2023/11/20 01:08:18;;;;;;;0.93;0.93;;;;;;;3.59;95.42;98389.13;4995498;28;20113;-76
2023/11/20 01:10:43;;;;;;;0.90;0.90;;;;;;;3.31;95.26;98397.38;4996597;28;20076;-77
2023/11/20 01:13:09;;;;;;;1.00;1.00;;;;;;;3.25;95.01;98408.47;4993187;28;20038;-77
2023/11/20 01:15:34;;;;;;;0.80;0.80;;;;;;;3.07;95.47;98400.53;4980221;28;20023;-77
2023/11/20 01:18:00;;;;;;;0.90;0.90;;;;;;;3.41;96.12;98402.31;4994773;28;20104;-77
2023/11/20 01:20:28;;;;;;;0.90;0.90;;;;;;;3.21;95.83;98402.97;4996232;28;20034;-77
2023/11/20 01:22:53;;;;;;;0.75;0.75;;;;;;;3.26;95.92;98404.16;4977576;28;20034;-77
2023/11/20 01:25:19;;;;;;;0.90;0.90;;;;;;;3.26;95.82;98397.13;4995267;28;20045;-77
2023/11/20 01:27:45;;;;;;;0.93;0.93;;;;;;;3.32;95.99;98389.53;4992982;28;20037;-77
2023/11/20 01:30:11;;;;;;;1.00;1.00;;;;;;;3.64;96.10;98389.34;4994981;28;20022;-77
2023/11/20 01:32:37;;;;;;;0.80;0.80;;;;;;;3.52;95.75;98387.91;5000250;28;20337;-77
2023/11/20 01:35:04;;;;;;;0.90;0.90;;;;;;;3.51;95.65;98385.22;4982107;28;20042;-77
2023/11/20 01:37:29;;;;;;;0.90;0.90;;;;;;;3.63;95.40;98391.09;4994369;28;20045;-77
2023/11/20 01:39:54;;;;;;;0.85;0.85;;;;;;;3.60;95.51;98397.13;4994443;28;20042;-77
2023/11/20 01:42:20;;;;;;;0.90;0.90;;;;;;;3.81;94.93;98386.75;4994752;28;20042;-77
2023/11/20 01:44:46;;;;;;;0.80;0.80;;;;;;;3.91;94.92;98376.66;4995333;28;20536;-76
2023/11/20 01:47:12;;;;;;;1.00;1.00;;;;;;;3.94;95.07;98376.81;4992726;28;20034;-77
2023/11/20 01:49:41;;;;;;;0.90;0.90;;;;;;;3.96;95.14;98380.41;4977558;28;20507;-77
2023/11/20 01:52:06;;;;;;;0.90;0.90;;;;;;;3.99;95.53;98380.56;4982752;28;20126;-77
2023/11/20 01:54:32;;;;;;;1.00;1.00;;;;;;;4.00;95.34;98379.75;4995041;28;20025;-77
2023/11/20 01:57:01;;;;;;;0.90;0.90;;;;;;;4.34;94.96;98372.59;5011051;28;20034;-77
2023/11/20 01:59:27;;;;;;;0.80;0.80;;;;;;;4.24;94.58;98370.38;4998585;28;20029;-77
2023/11/20 02:01:54;;;;;;;0.83;0.83;;;;;;;4.37;94.83;98377.16;4993928;28;20041;-77
2023/11/20 02:04:22;;;;;;;0.90;0.90;;;;;;;4.55;94.66;98374.44;4992463;28;20053;-76
2023/11/20 02:06:48;;;;;;;0.70;0.70;;;;;;;4.69;94.25;98377.72;4994050;28;20042;-77
2023/11/20 02:09:16;;;;;;;0.90;0.90;;;;;;;4.78;93.94;98375.50;4995333;28;20029;-77
2023/11/20 02:11:44;;;;;;;0.80;0.80;;;;;;;4.93;93.88;98370.00;4977527;28;20030;-77
2023/11/20 02:14:10;;;;;;;0.88;0.88;;;;;;;5.03;94.17;98362.59;4992540;28;20042;-76
2023/11/20 02:16:35;;;;;;;0.80;0.80;;;;;;;5.21;93.50;98362.47;5009004;28;20034;-77
2023/11/20 02:19:13;;;;;;;0.80;0.80;;;;;;;5.41;92.92;98368.63;4993722;28;20540;-77
2023/11/20 02:21:41;;;;;;;0.90;0.90;;;;;;;5.40;93.17;98362.44;4997328;28;20034;-77
2023/11/20 02:24:07;;;;;;;0.80;0.80;;;;;;;5.36;93.51;98359.59;4995714;28;20030;-77
2023/11/20 02:26:34;;;;;;;0.80;0.80;;;;;;;5.54;92.69;98347.16;4992388;28;20289;-77
2023/11/20 02:29:31;;;;;;;0.80;0.80;;;;;;;5.87;91.74;98347.66;4994101;28;20018;-77
2023/11/20 02:31:57;;;;;;;0.80;0.80;;;;;;;5.64;92.11;98351.09;4991556;28;20041;-77
2023/11/20 02:34:22;;;;;;;0.80;0.80;;;;;;;5.67;92.47;98345.94;4992495;28;20037;-77
2023/11/20 02:36:48;;;;;;;0.70;0.70;;;;;;;5.78;92.75;98349.03;5006722;28;20453;-77
2023/11/20 02:39:14;;;;;;;0.70;0.70;;;;;;;5.85;91.95;98349.38;4994302;28;20033;-77
2023/11/20 02:41:39;;;;;;;0.90;0.90;;;;;;;5.97;91.74;98340.16;4993282;28;20027;-77
2023/11/20 02:44:05;;;;;;;0.80;0.80;;;;;;;5.91;92.81;98344.34;4992648;28;20022;-77
2023/11/20 02:46:31;;;;;;;0.80;0.80;;;;;;;6.02;92.04;98331.53;4992838;28;20028;-77
2023/11/20 02:48:56;;;;;;;0.75;0.75;;;;;;;6.03;92.63;98335.09;4992228;28;20029;-76
2023/11/20 02:51:23;;;;;;;0.85;0.85;;;;;;;6.05;92.01;98333.44;4991557;28;20141;-77
2023/11/20 02:53:49;;;;;;;0.88;0.88;;;;;;;6.23;91.26;98330.59;4994752;28;20121;-77
2023/11/20 02:56:16;;;;;;;0.80;0.80;;;;;;;6.57;90.36;98323.13;4990108;28;20034;-77
2023/11/20 02:58:42;;;;;;;0.80;0.80;;;;;;;6.86;90.04;98326.88;4996199;28;20522;-77
2023/11/20 03:01:07;;;;;;;0.70;0.70;;;;;;;7.26;87.87;98316.78;4992373;28;20505;-77
2023/11/20 03:03:33;;;;;;;0.70;0.70;;;;;;;7.61;86.48;98318.00;4996218;28;20034;-77
2023/11/20 03:05:59;;;;;;;0.70;0.70;;;;;;;7.76;85.79;98313.22;4997499;28;20084;-77
2023/11/20 03:08:26;;;;;;;0.70;0.70;;;;;;;8.06;84.16;98312.44;4991611;28;20437;-77
2023/11/20 03:10:51;;;;;;;0.70;0.70;;;;;;;8.22;82.83;98309.38;4992520;28;20088;-76
2023/11/20 03:13:17;;;;;;;0.68;0.68;;;;;;;8.45;82.29;98310.13;4992603;28;20387;-77
2023/11/20 03:15:42;;;;;;;0.60;0.60;;;;;;;8.77;79.71;98303.13;4997532;28;20349;-77
2023/11/20 03:18:08;;;;;;;0.60;0.60;;;;;;;8.73;79.65;98309.22;4991172;28;20040;-76
2023/11/20 03:20:33;;;;;;;0.60;0.60;;;;;;;8.80;79.29;98299.66;4992817;28;20073;-76
2023/11/20 03:22:59;;;;;;;0.70;0.70;;;;;;;8.87;79.34;98307.84;4994737;28;20049;-76
2023/11/20 03:25:25;;;;;;;0.60;0.60;;;;;;;9.16;77.79;98306.03;4993705;28;20036;-77
2023/11/20 03:27:54;;;;;;;0.60;0.60;;;;;;;9.04;78.23;98299.44;4994226;28;20066;-77
2023/11/20 03:30:22;;;;;;;0.60;0.60;;;;;;;8.99;78.89;98300.22;4992426;28;20030;-76
2023/11/20 03:32:48;;;;;;;0.50;0.50;;;;;;;9.12;77.84;98298.81;4994151;28;20041;-76
2023/11/20 03:35:14;;;;;;;0.60;0.60;;;;;;;9.27;77.49;98297.44;4996072;28;20390;-76
2023/11/20 03:37:40;;;;;;;0.60;0.60;;;;;;;9.48;76.24;98297.97;4998231;28;20532;-77
2023/11/20 03:40:07;;;;;;;0.60;0.60;;;;;;;9.50;76.33;98286.53;4997891;28;20038;-78
2023/11/20 03:42:34;;;;;;;;;;;;;;;9.40;77.55;98281.81;5003485;28;20041;-77
2023/11/20 03:44:59;;;;;;;0.60;0.60;;;;;;;9.43;76.85;98284.53;4996805;28;19921;-77
2023/11/20 03:47:25;;;;;;;0.60;0.60;;;;;;;9.41;76.87;98285.38;4993127;28;20033;-78
2023/11/20 03:49:50;;;;;;;0.60;0.60;;;;;;;9.41;76.67;98283.63;4991906;28;20042;-77
2023/11/20 03:52:16;;;;;;;0.60;0.60;;;;;;;9.50;76.00;98281.19;4992425;28;20488;-77
2023/11/20 03:54:42;;;;;;;0.60;0.60;;;;;;;9.57;75.55;98287.56;4997752;28;20041;-77
2023/11/20 03:57:08;;;;;;;0.70;0.70;;;;;;;9.61;75.48;98286.78;4994214;28;20377;-76
2023/11/20 03:59:33;;;;;;;0.60;0.60;;;;;;;9.68;75.56;98294.09;4993968;28;20036;-76
2023/11/20 04:01:59;;;;;;;0.60;0.60;;;;;;;9.69;75.62;98287.91;4991801;28;20043;-76
2023/11/20 04:04:27;;;;;;;0.63;0.63;;;;;;;9.51;76.54;98292.75;4975904;28;21919;-77
2023/11/20 04:06:53;;;;;;;0.70;0.70;;;;;;;9.52;75.67;98287.44;4994000;28;20038;-77
2023/11/20 04:09:19;;;;;;;0.52;0.52;;;;;;;9.39;76.47;98290.69;4998415;28;20399;-77
2023/11/20 04:11:44;;;;;;;0.50;0.50;;;;;;;9.51;76.26;98279.44;4994017;28;20034;-77
2023/11/20 04:14:10;;;;;;;0.60;0.60;;;;;;;9.42;76.05;98288.06;4996494;28;20136;-77
2023/11/20 04:16:36;;;;;;;0.60;0.60;;;;;;;9.61;75.48;98288.56;4997464;28;20041;-77
2023/11/20 04:19:02;;;;;;;0.63;0.63;;;;;;;9.56;76.00;98283.13;4997100;28;20559;-77
2023/11/20 04:21:29;;;;;;;0.60;0.60;;;;;;;9.50;75.71;98289.19;4996205;28;20124;-77
2023/11/20 04:23:55;;;;;;;0.60;0.60;;;;;;;9.43;75.85;98294.31;4994734;28;20030;-77
2023/11/20 04:26:20;;;;;;;0.60;0.60;;;;;;;9.49;75.50;98295.38;4996917;28;20589;-78
2023/11/20 04:28:47;;;;;;;0.60;0.60;;;;;;;9.38;76.51;98296.84;4998260;28;20038;-77
2023/11/20 04:31:12;;;;;;;0.60;0.60;;;;;;;9.51;75.84;98304.31;4997551;28;20120;-77
2023/11/20 04:33:42;;;;;;;0.50;0.50;;;;;;;9.51;75.76;98298.06;5009131;28;20038;-77
2023/11/20 04:36:09;;;;;;;0.50;0.50;;;;;;;9.50;75.93;98297.19;4995144;28;20037;-77
2023/11/20 04:38:35;;;;;;;0.60;0.60;;;;;;;9.40;76.06;98294.25;4996751;28;20072;-77
2023/11/20 04:41:01;;;;;;;0.60;0.60;;;;;;;9.50;75.46;98283.88;4994767;28;20298;-77
2023/11/20 04:43:26;;;;;;;0.60;0.60;;;;;;;9.53;75.51;98288.34;4994506;28;20038;-77
2023/11/20 04:45:52;;;;;;;0.60;0.60;;;;;;;9.61;74.96;98288.56;4995067;28;20045;-77
2023/11/20 04:48:17;;;;;;;0.60;0.60;;;;;;;9.86;72.52;98285.63;4996613;28;20041;-77
2023/11/20 04:50:43;;;;;;;0.60;0.60;;;;;;;9.83;73.67;98287.34;4981761;28;20033;-77
2023/11/20 04:53:09;;;;;;;0.60;0.60;;;;;;;9.81;73.72;98295.28;4995641;28;20116;-77
2023/11/20 04:55:34;;;;;;;0.60;0.60;;;;;;;9.91;72.77;98299.09;4995581;28;20552;-77
2023/11/20 04:58:00;;;;;;;0.60;0.60;;;;;;;9.83;73.14;98296.25;4998195;28;20034;-77
2023/11/20 05:00:26;;;;;;;0.60;0.60;;;;;;;9.78;72.76;98297.91;5000848;28;20092;-78
2023/11/20 05:02:51;;;;;;;0.60;0.60;;;;;;;9.89;72.25;98290.16;4996224;28;20116;-77
2023/11/20 05:05:16;;;;;;;0.60;0.60;;;;;;;9.89;72.32;98293.72;4998786;28;20388;-77
2023/11/20 05:07:42;;;;;;;0.57;0.57;;;;;;;9.81;72.55;98300.63;4998172;28;20391;-78
2023/11/20 05:10:08;;;;;;;0.60;0.60;;;;;;;9.76;72.99;98294.28;4991412;28;20520;-77
2023/11/20 05:12:33;;;;;;;0.57;0.57;;;;;;;9.83;72.93;98300.69;4995032;28;20029;-77
2023/11/20 05:14:59;;;;;;;0.60;0.60;;;;;;;9.83;73.27;98290.91;4997230;28;20038;-77
2023/11/20 05:17:24;;;;;;;0.50;0.50;;;;;;;9.82;72.89;98296.19;4991985;28;20125;-78
2023/11/20 05:19:52;;;;;;;0.60;0.60;;;;;;;9.63;74.16;98294.81;4994744;28;20049;-78
2023/11/20 05:22:34;;;;;;;0.50;0.50;;;;;;;9.73;73.63;98295.13;4990043;28;20030;-77
2023/11/20 05:25:00;;;;;;;0.60;0.60;;;;;;;9.81;73.61;98292.63;4996387;28;20033;-78
2023/11/20 05:27:25;;;;;;;0.60;0.60;;;;;;;9.75;73.85;98292.47;4996704;28;20408;-78
2023/11/20 05:29:50;;;;;;;0.60;0.60;;;;;;;9.88;73.92;98291.94;4994660;28;20899;-78
2023/11/20 05:32:18;;;;;;;0.60;0.60;;;;;;;9.74;74.16;98290.69;4993482;28;20022;-78
2023/11/20 05:34:43;;;;;;;0.60;0.60;;;;;;;9.74;74.20;98296.91;4993414;28;20030;-79
2023/11/20 05:37:09;;;;;;;0.50;0.50;;;;;;;9.82;73.42;98294.44;4993078;28;20041;-78
2023/11/20 05:39:46;;;;;;;0.60;0.60;;;;;;;9.77;73.91;98290.75;4995378;28;20030;-78
2023/11/20 05:42:12;;;;;;;0.60;0.60;;;;;;;9.77;73.83;98290.75;4993654;28;20038;-78
2023/11/20 05:44:40;;;;;;;0.50;0.50;;;;;;;9.79;73.50;98293.47;4993590;28;20033;-78
2023/11/20 05:47:06;;;;;;;0.60;0.60;;;;;;;9.80;73.87;98297.94;4994552;28;20490;-78
2023/11/20 05:49:31;;;;;;;0.50;0.50;;;;;;;9.97;72.79;98293.94;4994305;28;20032;-78
2023/11/20 05:51:57;;;;;;;0.50;0.50;;;;;;;9.80;73.83;98300.59;4999661;28;20165;-78
2023/11/20 05:54:22;;;;;;;0.60;0.60;;;;;;;9.78;74.13;98303.22;4991273;28;20048;-77
2023/11/20 05:56:48;;;;;;;0.63;0.63;;;;;;;9.83;74.12;98303.34;4993585;28;20065;-78
2023/11/20 05:59:13;;;;;;;0.60;0.60;;;;;;;9.75;74.30;98298.69;4993378;28;20033;-78
2023/11/20 06:01:40;;;;;;;0.52;0.52;;;;;;;9.75;74.75;98297.81;5006830;28;20033;-77
2023/11/20 06:04:08;;;;;;;0.50;0.50;;;;;;;9.63;74.88;98298.41;4994458;28;20084;-78
2023/11/20 06:06:35;;;;;;;0.60;0.60;;;;;;;9.48;75.41;98301.53;4992177;28;20061;-78
2023/11/20 06:09:04;;;;;;;0.60;0.60;;;;;;;9.29;76.71;98301.00;4990798;28;20031;-78
2023/11/20 06:11:30;;;;;;;0.52;0.52;;;;;;;9.14;77.34;98297.06;4992151;28;20646;-76
2023/11/20 06:13:57;;;;;;;0.60;0.60;;;;;;;9.12;77.83;98304.13;5009517;28;20087;-77
2023/11/20 06:16:24;;;;;;;0.60;0.60;;;;;;;9.04;78.37;98304.75;4991768;28;20026;-77
2023/11/20 06:18:49;;;;;;;0.60;0.60;;;;;;;9.04;79.78;98297.69;4990943;28;20475;-77
2023/11/20 06:21:14;;;;;;;0.50;0.50;;;;;;;8.91;80.46;98301.78;4998589;28;20089;-76
2023/11/20 06:23:40;;;;;;;0.50;0.50;;;;;;;8.84;80.62;98297.13;4993949;28;20033;-77
2023/11/20 06:26:05;;;;;;;0.60;0.60;;;;;;;8.82;80.83;98305.94;4995262;28;20037;-77
2023/11/20 06:28:31;;;;;;;0.60;0.60;;;;;;;8.81;81.15;98305.00;4992673;28;20080;-77
2023/11/20 06:30:57;;;;;;;0.60;0.60;;;;;;;8.86;80.96;98305.13;4993418;28;20038;-77
2023/11/20 06:33:22;;;;;;;0.50;0.50;;;;;;;8.83;81.29;98318.38;4990911;28;20030;-78
2023/11/20 06:35:48;;;;;;;0.50;0.50;;;;;;;8.81;81.37;98312.09;4996437;28;20034;-78
2023/11/20 06:38:13;;;;;;;0.50;0.50;;;;;;;8.85;80.96;98313.97;4992434;28;20042;-78
2023/11/20 06:40:42;;;;;;;0.60;0.60;;;;;;;8.94;79.76;98319.56;4995355;28;20041;-77
2023/11/20 06:43:08;;;;;;;0.60;0.60;;;;;;;8.98;79.55;98314.38;4990743;28;20030;-78
2023/11/20 06:45:37;;;;;;;0.60;0.60;;;;;;;8.94;80.38;98319.56;4993772;28;20060;-77
2023/11/20 06:48:03;;;;;;;0.60;0.60;;;;;;;8.84;80.76;98318.41;4992141;28;20027;-77
2023/11/20 06:50:29;;;;;;;0.60;0.60;;;;;;;8.81;81.15;98318.28;4992570;28;20108;-78
2023/11/20 06:52:54;;;;;;;0.60;0.60;;;;;;;8.80;81.81;98319.16;4989765;28;20048;-77
2023/11/20 06:55:22;;;;;;;0.60;0.60;;;;;;;8.68;82.88;98319.72;4991937;28;20034;-77
2023/11/20 06:57:47;;;;;;;0.60;0.60;;;;;;;8.72;82.80;98326.03;4994419;28;20042;-77
2023/11/20 07:00:13;;;;;;;0.55;0.55;;;;;;;8.66;83.56;98325.81;4995290;28;20049;-77
2023/11/20 07:02:39;;;;;;;0.52;0.52;;;;;;;8.61;83.34;98320.38;4992872;28;20022;-77
2023/11/20 07:05:07;;;;;;;0.60;0.60;;;;;;;8.62;83.71;98322.16;4989096;28;20093;-78
2023/11/20 07:07:39;;;;;;;;;;;;;;;8.62;83.09;98326.59;5001248;28;20030;-78
2023/11/20 07:10:11;;;;;;;0.60;0.60;;;;;;;8.63;83.42;98324.00;4994281;28;20032;-78
2023/11/20 07:12:38;;;;;;;0.60;0.60;;;;;;;8.60;84.55;98323.91;5006598;28;20069;-79
2023/11/20 07:15:04;;;;;;;;;;;;;;;8.57;84.64;98322.88;4992541;28;20057;-79
2023/11/20 07:17:32;;;;;;;0.60;0.60;;;;;;;8.55;84.95;98322.84;4992700;28;20455;-78
2023/11/20 07:19:57;;;;;;;0.60;0.60;;;;;;;8.62;83.96;98326.59;4993207;28;20041;-79
2023/11/20 07:22:23;;;;;;;0.70;0.70;;;;;;;8.72;82.43;98318.97;4994269;28;20043;-78
2023/11/20 07:24:49;;;;;;;0.60;0.60;;;;;;;8.71;82.11;98316.22;5002007;28;20034;-79
2023/11/20 07:27:14;;;;;;;0.57;0.57;;;;;;;8.77;82.70;98321.75;4992017;28;20410;-79
2023/11/20 07:29:42;;;;;;;0.60;0.60;;;;;;;8.85;81.89;98324.63;4994596;28;20058;-79
2023/11/20 07:32:07;;;;;;;0.60;0.60;;;;;;;9.13;77.33;98321.00;4992706;28;20100;-79
2023/11/20 07:34:33;;;;;;;0.60;0.60;;;;;;;9.37;76.26;98321.66;4994192;28;20036;-79
2023/11/20 07:36:58;;;;;;;0.50;0.50;;;;;;;9.56;75.50;98319.50;4981667;28;20033;-79
2023/11/20 07:39:24;;;;;;;0.50;0.50;;;;;;;9.83;72.66;98316.66;4995303;28;20200;-79
2023/11/20 07:41:53;;;;;;;0.50;0.50;;;;;;;9.93;72.13;98321.34;5000250;28;20440;-79
2023/11/20 07:44:20;;;;;;;0.60;0.60;;;;;;;10.03;71.34;98318.94;4998735;28;20026;-79
2023/11/20 07:46:45;;;;;;;0.60;0.60;;;;;;;10.25;70.27;98322.16;4999604;28;20037;-78
2023/11/20 07:49:11;;;;;;;0.60;0.60;;;;;;;10.36;69.95;98310.00;4994431;28;20370;-79
2023/11/20 07:51:36;;;;;;;0.50;0.50;;;;;;;10.36;69.50;98311.75;4996585;28;20025;-78
2023/11/20 07:54:02;;;;;;;0.60;0.60;;;;;;;10.38;69.79;98308.25;4999149;28;20380;-79
2023/11/20 07:56:27;;;;;;;0.60;0.60;;;;;;;10.43;69.32;98313.69;4989069;28;20860;-79
2023/11/20 07:58:53;;;;;;;0.60;0.60;;;;;;;10.30;69.88;98308.94;4985834;28;20041;-79
2023/11/20 08:01:20;;;;;;;0.60;0.60;;;;;;;10.29;70.02;98310.69;4981393;28;20022;-78
2023/11/20 08:03:45;;;;;;;0.60;0.60;;;;;;;10.33;70.03;98306.34;4993458;28;20052;-78
2023/11/20 08:06:13;;;;;;;0.68;0.68;;;;;;;10.34;70.17;98309.03;5000045;28;20152;-78
2023/11/20 08:08:38;;;;;;;0.60;0.60;;;;;;;10.27;70.13;98317.78;4998689;28;20057;-77
2023/11/20 08:11:04;;;;;;;0.60;0.60;;;;;;;10.45;69.78;98309.31;4996551;28;20173;-78
2023/11/20 08:13:30;;;;;;;0.60;0.60;;;;;;;10.41;70.06;98312.78;5009152;28;20046;-79
2023/11/20 08:15:55;;;;;;;0.60;0.60;;;;;;;10.37;70.34;98303.78;4996404;28;20037;-79
2023/11/20 08:18:21;;;;;;;0.45;0.45;;;;;;;10.44;70.08;98302.16;4998435;28;20042;-80
2023/11/20 08:20:46;;;;;;;0.60;0.60;;;;;;;10.53;70.25;98305.91;4996973;28;20041;-79
2023/11/20 08:23:12;;;;;;;0.60;0.60;;;;;;;10.59;70.25;98301.59;5001794;28;20041;-80
2023/11/20 08:25:37;;;;;;;0.50;0.50;;;;;;;10.70;69.46;98294.75;4993587;28;20038;-80
2023/11/20 08:28:03;;;;;;;0.52;0.52;;;;;;;10.73;69.47;98294.78;4995433;28;20034;-79
2023/11/20 08:30:31;;;;;;;0.60;0.60;;;;;;;10.78;69.58;98291.38;4998145;28;20026;-79
2023/11/20 08:32:56;;;;;;;0.50;0.50;;;;;;;10.81;69.43;98286.97;4997342;28;20482;-78
2023/11/20 08:35:22;;;;;;;0.50;0.50;;;;;;;10.93;69.98;98289.91;4998220;28;20025;-78
2023/11/20 08:37:47;;;;;;;0.47;0.47;;;;;;;11.09;68.95;98292.00;4997454;28;20045;-79
2023/11/20 08:40:14;;;;;;;0.50;0.50;;;;;;;11.25;68.74;98288.75;4997761;28;20080;-78
2023/11/20 08:42:41;;;;;;;0.50;0.50;;;;;;;11.24;69.05;98289.63;4999270;28;20038;-78
2023/11/20 08:45:07;;;;;;;0.50;0.50;;;;;;;11.17;67.95;98277.03;5003391;28;20022;-79
2023/11/20 08:47:35;;;;;;;0.50;0.50;;;;;;;11.22;67.13;98290.47;4996271;28;20026;-78
2023/11/20 08:50:05;;;;;;;0.50;0.50;;;;;;;11.08;68.40;98284.84;4996515;28;20288;-78
2023/11/20 08:52:31;;;;;;;0.50;0.50;;;;;;;11.15;67.92;98280.53;5003043;28;20056;-78
2023/11/20 08:54:57;;;;;;;0.50;0.50;;;;;;;11.19;67.59;98279.72;4996154;28;20476;-78
2023/11/20 08:57:22;;;;;;;0.50;0.50;;;;;;;11.18;67.67;98278.81;4995530;28;20038;-78
2023/11/20 08:59:49;;;;;;;0.50;0.50;;;;;;;11.04;68.30;98280.31;4997375;28;20030;-79
2023/11/20 09:02:15;;;;;;;0.50;0.50;;;;;;;11.01;68.36;98280.25;5000390;28;20045;-79
2023/11/20 09:04:40;;;;;;;0.50;0.50;;;;;;;10.97;68.70;98284.66;4997727;28;20038;-79
2023/11/20 09:07:06;;;;;;;0.50;0.50;;;;;;;11.29;66.50;98279.03;4997059;28;20053;-80
2023/11/20 09:09:31;;;;;;;0.50;0.50;;;;;;;11.27;67.51;98280.78;4997221;28;20117;-78
2023/11/20 09:11:57;;;;;;;0.50;0.50;;;;;;;11.25;67.26;98286.06;4999171;28;20013;-78
2023/11/20 09:14:24;;;;;;;0.40;0.40;;;;;;;11.39;66.34;98286.34;4997805;28;20770;-78
2023/11/20 09:16:50;;;;;;;0.55;0.55;;;;;;;11.60;65.21;98284.94;4996394;28;20042;-77
2023/11/20 09:19:15;;;;;;;0.50;0.50;;;;;;;11.63;65.61;98291.22;4997559;28;20038;-77
2023/11/20 09:21:41;;;;;;;0.50;0.50;;;;;;;11.40;65.88;98285.50;4997960;28;20112;-77
2023/11/20 09:24:06;;;;;;;0.50;0.50;;;;;;;11.40;65.43;98282.81;4977860;28;20030;-77
2023/11/20 09:26:31;;;;;;;0.50;0.50;;;;;;;11.45;65.45;98286.47;4994359;28;20057;-77
2023/11/20 09:28:57;;;;;;;0.50;0.50;;;;;;;11.52;65.73;98279.47;4994351;28;20062;-77
2023/11/20 09:31:22;;;;;;;0.60;0.60;;;;;;;11.47;65.91;98290.06;4990388;28;20025;-77
2023/11/20 09:33:50;;;;;;;0.50;0.50;;;;;;;11.36;66.54;98286.31;4991612;28;20038;-77
2023/11/20 09:36:15;;;;;;;;;;;;;;;11.36;66.28;98288.06;4996158;28;20042;-77
2023/11/20 09:38:41;;;;;;;0.60;0.60;;;;;;;11.61;66.56;98284.97;4991859;28;19913;-77
2023/11/20 09:41:07;;;;;;;0.50;0.50;;;;;;;11.85;64.72;98279.19;4994251;28;20038;-78
2023/11/20 09:43:34;;;;;;;0.50;0.50;;;;;;;12.13;64.44;98269.84;4996341;28;20034;-77
2023/11/20 09:46:06;;;;;;;0.50;0.50;;;;;;;12.26;63.84;98266.47;4995102;28;20145;-78
2023/11/20 09:48:33;;;;;;;0.50;0.50;;;;;;;12.28;63.50;98274.50;4994404;28;20034;-77
2023/11/20 09:50:59;;;;;;;;;;;;;;;12.17;64.36;98266.34;4997059;28;20030;-78
2023/11/20 09:53:32;;;;;;;0.50;0.50;;;;;;;12.18;64.36;98257.44;4997230;28;19909;-78
2023/11/20 09:55:58;;;;;;;0.40;0.40;;;;;;;11.94;65.36;98257.06;4996631;28;20041;-78
2023/11/20 09:58:24;;;;;;;0.50;0.50;;;;;;;11.65;66.86;98261.88;4995893;28;20031;-78
2023/11/20 10:00:56;;;;;;;0.40;0.40;;;;;;;11.51;67.30;98265.19;4996620;28;20091;-76
2023/11/20 10:03:23;;;;;;;0.57;0.57;;;;;;;11.65;67.18;98261.88;4995683;28;20045;-77
2023/11/20 10:05:50;;;;;;;;;;;;;;;11.89;66.74;98256.09;4995159;28;20034;-78
2023/11/20 10:08:18;;;;;;;0.55;0.55;;;;;;;11.82;66.49;98250.63;4996689;28;20437;-78
2023/11/20 10:10:48;;;;;;;0.50;0.50;;;;;;;12.23;64.90;98245.03;4995480;28;20034;-77
2023/11/20 10:13:15;;;;;;;0.50;0.50;;;;;;;12.11;65.56;98250.19;5009712;28;20400;-77
2023/11/20 10:15:40;;;;;;;0.50;0.50;;;;;;;11.96;65.72;98248.16;4984640;28;20060;-77
2023/11/20 10:18:06;;;;;;;0.50;0.50;;;;;;;12.07;64.96;98254.59;5000705;28;20559;-78
2023/11/20 10:20:45;;;;;;;0.50;0.50;;;;;;;12.12;63.84;98246.66;4997788;28;20069;-78
2023/11/20 10:23:13;;;;;;;0.47;0.47;;;;;;;12.06;63.27;98242.09;5000210;28;20491;-78
2023/11/20 10:25:40;;;;;;;;;;;;;;;12.10;63.92;98239.47;4995076;28;20048;-77
2023/11/20 10:28:05;;;;;;;0.60;0.60;;;;;;;12.33;63.92;98236.25;4996905;28;19956;-78
2023/11/20 10:30:31;;;;;;;0.70;0.70;;;;;;;14.72;57.35;98221.59;4995208;28;20052;-78
2023/11/20 10:32:56;;;;;;;0.60;0.60;;;;;;;16.19;52.78;98219.13;4994404;28;20033;-77
2023/11/20 10:35:22;;;;;;;0.40;0.40;;;;;;;15.92;52.35;98214.69;4995681;28;20030;-77
2023/11/20 10:37:55;;;;;;;0.40;0.40;;;;;;;14.31;56.28;98216.84;4995111;28;20037;-78
2023/11/20 10:40:21;;;;;;;0.40;0.40;;;;;;;14.43;55.32;98219.59;4996716;28;20049;-78
2023/11/20 10:42:47;;;;;;;0.50;0.50;;;;;;;14.44;55.46;98216.03;4990574;28;20050;-78
2023/11/20 10:45:12;;;;;;;0.40;0.40;;;;;;;14.82;55.44;98212.66;4986181;28;20065;-78
2023/11/20 10:47:38;;;;;;;0.40;0.40;;;;;;;14.38;55.29;98211.53;4988645;28;20122;-78
2023/11/20 10:50:04;;;;;;;0.40;0.40;;;;;;;14.12;56.27;98202.41;4985340;28;20435;-78
2023/11/20 10:52:31;;;;;;;0.50;0.50;;;;;;;14.09;55.73;98197.94;4991080;28;20034;-77
2023/11/20 10:55:00;;;;;;;0.70;0.70;;;;;;;15.68;50.92;98196.75;4992103;28;20137;-78
2023/11/20 10:57:26;;;;;;;0.40;0.40;;;;;;;16.59;49.17;98175.06;4989713;28;20035;-78
2023/11/20 10:59:55;;;;;;;0.30;0.30;;;;;;;14.76;54.17;98181.31;4987401;28;20038;-78
2023/11/20 11:02:22;;;;;;;0.40;0.40;;;;;;;13.49;57.60;98188.53;4991932;28;20048;-78
2023/11/20 11:04:52;;;;;;;0.40;0.40;;;;;;;12.84;59.95;98181.59;4987460;28;20479;-79
2023/11/20 11:07:22;;;;;;;0.40;0.40;;;;;;;12.69;60.62;98185.84;4972294;28;20053;-78
2023/11/20 11:09:48;;;;;;;0.40;0.40;;;;;;;12.25;61.96;98180.84;4992271;28;20871;-78
2023/11/20 11:12:15;;;;;;;0.40;0.40;;;;;;;12.00;63.10;98185.84;4988994;28;20391;-78
2023/11/20 11:14:41;;;;;;;0.50;0.50;;;;;;;11.48;65.92;98182.31;4993990;28;20472;-79
2023/11/20 11:17:13;;;;;;;0.50;0.50;;;;;;;10.89;70.05;98189.28;4984848;28;20030;-78
2023/11/20 11:19:48;;;;;;;0.60;0.60;;;;;;;10.55;72.76;98217.06;4988975;28;20057;-78
2023/11/20 11:22:27;;;;;;;0.60;0.60;;;;;;;10.34;74.13;98212.16;5003325;28;20114;-78
2023/11/20 11:24:58;;;;;;;0.90;0.90;;;;;;;12.73;67.82;98195.72;4987979;28;20050;-77
2023/11/20 11:27:31;;;;;;;0.70;0.70;;;;;;;13.94;63.87;98189.78;4991376;28;20034;-79
2023/11/20 11:29:59;;;;;;;0.70;0.70;;;;;;;13.76;65.36;98179.81;5007299;28;20500;-78
2023/11/20 11:32:33;;;;;;;0.70;0.70;;;;;;;14.19;61.74;98182.78;4987393;28;20034;-77
2023/11/20 11:35:02;;;;;;;0.60;0.60;;;;;;;14.71;61.22;98184.84;4993754;28;20399;-78
2023/11/20 11:37:50;;;;;;;0.60;0.60;;;;;;;15.28;58.01;98180.53;4969131;28;20041;-78